Time;durP1;ratioP1;P1;durP2;ratioP2;P2;SDS_P1;SDS_P2;PMS_P1;PMS_P2;Temp;Humidity;BMP_temperature;BMP_pressure;BME280_temperature;BME280_humidity;BME280_pressure;Samples;Min_cycle;Max_cycle;Signal;HPM_P1;HPM_P2
2021/05/06 00:31:53;;;;;;;1.50;1.27;;;6.50;98.20;;;;;;4993382;28;20494;-79
2021/05/06 00:34:19;;;;;;;1.50;1.30;;;6.50;98.20;;;;;;5010447;28;20522;-77
2021/05/06 00:36:47;;;;;;;1.50;1.20;;;6.50;98.20;;;;;;5007007;28;20570;-79
2021/05/06 00:39:17;;;;;;;1.50;1.30;;;6.50;98.20;;;;;;5002703;28;20563;-77
2021/05/06 00:41:53;;;;;;;1.50;1.20;;;6.40;98.20;;;;;;4998692;28;20529;-77
2021/05/06 00:55:35;;;;;;;1.50;1.30;;;6.20;98.20;;;;;;4982100;28;20475;-81
2021/05/06 00:58:19;;;;;;;1.50;1.20;;;6.00;98.20;;;;;;4991168;28;20485;-80
2021/05/06 01:01:07;;;;;;;1.57;1.30;;;6.00;98.20;;;;;;4976493;28;20979;-81
2021/05/06 01:03:42;;;;;;;1.60;1.40;;;5.90;98.20;;;;;;4989691;28;20474;-81
2021/05/06 01:06:12;;;;;;;1.50;1.30;;;5.80;98.20;;;;;;4980954;28;20489;-80
2021/05/06 01:08:42;;;;;;;1.50;1.30;;;5.80;98.20;;;;;;4995831;28;20472;-81
2021/05/06 01:11:16;;;;;;;1.50;1.20;;;5.80;98.20;;;;;;4971179;28;20577;-81
2021/05/06 01:13:44;;;;;;;1.50;1.30;;;5.80;98.20;;;;;;4993120;28;20549;-80
2021/05/06 01:16:11;;;;;;;1.53;1.30;;;5.70;98.20;;;;;;4977762;28;20538;-79
2021/05/06 01:18:37;;;;;;;1.50;1.30;;;5.60;98.20;;;;;;4993974;28;20884;-80
2021/05/06 01:21:05;;;;;;;1.50;1.20;;;5.60;98.20;;;;;;4977654;28;20516;-79
2021/05/06 01:23:34;;;;;;;1.50;1.30;;;5.60;98.20;;;;;;5003796;28;20788;-81
2021/05/06 01:26:11;;;;;;;1.50;1.40;;;5.60;98.20;;;;;;4976341;28;20525;-79
2021/05/06 01:28:39;;;;;;;1.53;1.30;;;5.50;98.20;;;;;;4993054;28;20960;-80
2021/05/06 01:31:09;;;;;;;1.50;1.30;;;5.50;98.20;;;;;;4977765;28;20485;-78
2021/05/06 01:33:39;;;;;;;1.50;1.20;;;5.50;98.20;;;;;;5002020;28;20460;-79
2021/05/06 01:36:09;;;;;;;1.53;1.30;;;5.50;98.20;;;;;;4974298;28;20515;-78
2021/05/06 01:38:51;;;;;;;1.50;1.30;;;5.50;98.20;;;;;;4998220;28;20963;-78
2021/05/06 01:41:40;;;;;;;1.50;1.23;;;5.50;98.20;;;;;;4972434;28;20494;-78
2021/05/06 01:44:09;;;;;;;1.50;1.30;;;5.50;98.20;;;;;;4992032;28;21211;-80
2021/05/06 01:47:05;;;;;;;1.60;1.30;;;5.60;98.20;;;;;;4987913;28;20538;-82
2021/05/06 01:49:48;;;;;;;1.60;1.30;;;5.60;98.20;;;;;;4989905;28;20495;-79
2021/05/06 01:57:59;;;;;;;1.50;1.30;;;5.70;98.20;;;;;;4991134;28;20484;-82
2021/05/06 02:00:28;;;;;;;1.53;1.30;;;5.70;98.20;;;;;;4975373;28;20528;-78
2021/05/06 02:02:55;;;;;;;1.53;1.30;;;5.70;98.20;;;;;;4992666;28;20488;-77
2021/05/06 02:05:22;;;;;;;1.50;1.30;;;5.60;98.20;;;;;;4986819;28;20574;-79
2021/05/06 02:07:49;;;;;;;1.50;1.20;;;5.60;98.20;;;;;;4990538;28;20480;-79
2021/05/06 02:10:17;;;;;;;1.53;1.30;;;5.60;98.20;;;;;;4989316;28;20491;-81
2021/05/06 02:12:45;;;;;;;1.50;1.27;;;5.60;98.20;;;;;;4982044;28;20485;-78
2021/05/06 02:15:15;;;;;;;1.50;1.30;;;5.50;98.20;;;;;;4980926;28;20530;-79
2021/05/06 02:17:42;;;;;;;1.50;1.23;;;5.50;98.20;;;;;;4991260;28;20496;-77
2021/05/06 02:20:09;;;;;;;1.53;1.30;;;5.50;98.20;;;;;;4990956;28;20457;-78
2021/05/06 02:22:36;;;;;;;1.50;1.30;;;5.40;98.20;;;;;;4974246;28;20871;-78
2021/05/06 02:25:04;;;;;;;1.50;1.30;;;5.40;98.20;;;;;;4983857;28;20491;-78
2021/05/06 02:27:30;;;;;;;1.50;1.30;;;5.40;98.20;;;;;;4982174;28;20511;-79
2021/05/06 02:29:57;;;;;;;1.60;1.40;;;5.40;98.20;;;;;;4992704;28;20465;-78
2021/05/06 02:32:23;;;;;;;1.50;1.20;;;5.50;98.20;;;;;;4986683;28;20488;-77
2021/05/06 02:34:50;;;;;;;1.50;1.30;;;5.50;98.20;;;;;;4991524;28;21164;-78
2021/05/06 02:37:17;;;;;;;1.50;1.30;;;5.50;98.20;;;;;;4984617;28;20566;-80
2021/05/06 02:39:45;;;;;;;1.50;1.23;;;5.50;98.20;;;;;;4983369;28;20805;-81
2021/05/06 02:42:12;;;;;;;1.60;1.30;;;5.40;98.20;;;;;;4987775;28;20479;-78
2021/05/06 02:44:39;;;;;;;1.53;1.30;;;5.40;98.20;;;;;;4989530;28;20465;-77
2021/05/06 02:47:06;;;;;;;1.50;1.30;;;5.40;98.20;;;;;;4987889;28;20491;-77
2021/05/06 02:49:32;;;;;;;1.50;1.30;;;5.40;98.20;;;;;;4985112;28;20473;-78
2021/05/06 02:52:04;;;;;;;1.50;1.23;;;5.40;98.20;;;;;;4975044;28;20504;-79
2021/05/06 02:54:36;;;;;;;1.53;1.30;;;5.40;98.20;;;;;;4982712;28;20842;-77
2021/05/06 02:57:08;;;;;;;1.60;1.40;;;5.40;98.20;;;;;;4981042;28;20491;-78
2021/05/06 03:05:00;;;;;;;1.50;1.30;;;5.50;98.20;;;;;;4984007;28;20456;-77
2021/05/06 03:07:29;;;;;;;1.50;1.30;;;5.50;98.20;;;;;;4982767;28;20493;-78
2021/05/06 03:10:01;;;;;;;1.57;1.30;;;5.60;98.20;;;;;;4978151;28;20545;-78
2021/05/06 03:12:40;;;;;;;1.50;1.20;;;5.60;98.20;;;;;;4982080;28;20492;-77
2021/05/06 03:21:08;;;;;;;1.50;1.30;;;5.80;98.20;;;;;;4990239;28;20445;-78
2021/05/06 03:23:33;;;;;;;1.50;1.30;;;5.80;98.20;;;;;;4976296;28;20577;-79
2021/05/06 03:26:00;;;;;;;1.50;1.30;;;5.90;98.20;;;;;;4977471;28;21114;-78
2021/05/06 03:28:29;;;;;;;1.50;1.30;;;5.90;98.20;;;;;;4978624;28;20210;-79
2021/05/06 03:31:18;;;;;;;1.50;1.27;;;5.90;98.20;;;;;;4970743;28;20516;-80
2021/05/06 03:41:58;;;;;;;1.60;1.40;;;6.00;98.20;;;;;;4977297;28;20527;-78
2021/05/06 03:44:33;;;;;;;1.50;1.40;;;6.00;98.20;;;;;;4994567;28;20540;-81
2021/05/06 04:17:58;;;;;;;1.50;1.20;;;6.30;98.20;;;;;;4964014;28;20910;-78
2021/05/06 04:26:03;;;;;;;1.50;1.20;;;6.40;98.20;;;;;;4968855;28;20492;-78
2021/05/06 04:29:25;;;;;;;1.50;1.30;;;6.40;98.20;;;;;;4989778;28;20612;-77
2021/05/06 04:37:03;;;;;;;3.57;2.53;;;6.50;98.20;;;;;;4985524;28;20483;-78
2021/05/06 04:39:34;;;;;;;1.50;1.30;;;6.50;98.20;;;;;;4988014;28;20461;-80
2021/05/06 04:42:30;;;;;;;1.50;1.20;;;6.50;98.20;;;;;;4977515;28;20890;-78
2021/05/06 04:53:28;;;;;;;1.53;1.27;;;6.60;98.20;;;;;;4971745;28;20461;-79
2021/05/06 04:53:42;;;;;;;1.50;1.20;;;6.60;98.20;;;;;;4971102;28;20585;-78
2021/05/06 04:56:34;;;;;;;1.50;1.20;;;6.60;98.20;;;;;;4977536;28;20494;-78
2021/05/06 05:04:32;;;;;;;1.57;1.27;;;6.70;98.20;;;;;;4992060;28;20619;-77
2021/05/06 05:07:07;;;;;;;1.50;1.20;;;6.80;98.20;;;;;;4986022;28;20962;-80
2021/05/06 05:10:00;;;;;;;1.50;1.20;;;6.80;98.20;;;;;;4989362;28;20826;-78
2021/05/06 05:12:47;;;;;;;1.53;1.27;;;6.80;98.20;;;;;;4982148;28;20487;-77
2021/05/06 05:18:04;;;;;;;1.50;1.10;;;6.90;98.20;;;;;;4988049;28;20514;-79
2021/05/06 05:20:43;;;;;;;1.50;1.20;;;7.00;98.20;;;;;;4987842;28;20756;-80
2021/05/06 05:23:33;;;;;;;1.57;1.40;;;7.10;98.20;;;;;;4996606;28;20480;-77
2021/05/06 05:26:03;;;;;;;1.57;1.30;;;7.10;98.20;;;;;;4979338;28;20492;-77
2021/05/06 05:28:30;;;;;;;1.50;1.20;;;7.20;98.20;;;;;;4997374;28;20839;-76
2021/05/06 05:30:56;;;;;;;1.50;1.13;;;7.20;98.20;;;;;;4974774;28;20491;-80
2021/05/06 05:33:25;;;;;;;1.50;1.20;;;7.30;98.20;;;;;;4990607;28;20472;-79
2021/05/06 05:36:01;;;;;;;1.50;1.10;;;7.40;98.20;;;;;;4978856;28;20481;-79
2021/05/06 05:38:35;;;;;;;1.50;1.10;;;7.40;98.20;;;;;;4996551;28;20491;-78
2021/05/06 05:41:14;;;;;;;1.50;1.30;;;7.40;98.20;;;;;;4980246;28;20776;-80
2021/05/06 05:43:57;;;;;;;1.50;1.20;;;7.50;98.20;;;;;;4995820;28;20563;-82
2021/05/06 05:54:47;;;;;;;1.50;1.20;;;8.20;97.90;;;;;;4991858;28;20495;-77
2021/05/06 05:57:14;;;;;;;1.50;1.20;;;8.30;96.90;;;;;;4982381;28;20860;-78
2021/05/06 05:59:41;;;;;;;1.50;1.10;;;8.50;97.30;;;;;;4979322;28;20512;-78
2021/05/06 06:02:07;;;;;;;1.50;1.20;;;8.70;96.20;;;;;;4980732;28;20480;-77
2021/05/06 06:04:34;;;;;;;1.50;1.20;;;8.80;95.70;;;;;;4990555;28;20468;-78
2021/05/06 06:07:00;;;;;;;1.50;1.20;;;8.80;95.50;;;;;;4976824;28;20505;-77
2021/05/06 06:09:26;;;;;;;1.57;1.30;;;8.90;94.80;;;;;;4980143;28;20532;-77
2021/05/06 06:11:53;;;;;;;1.53;1.20;;;9.00;94.50;;;;;;4984620;28;20932;-77
2021/05/06 06:14:23;;;;;;;1.50;1.10;;;9.00;94.80;;;;;;4993485;28;20463;-77
2021/05/06 06:16:50;;;;;;;1.50;1.10;;;9.10;94.60;;;;;;4977454;28;20492;-76
2021/05/06 06:19:18;;;;;;;1.50;1.10;;;9.20;94.80;;;;;;4989349;28;20493;-76
2021/05/06 06:21:47;;;;;;;1.50;1.10;;;9.20;93.40;;;;;;4985471;28;20872;-78
2021/05/06 06:24:13;;;;;;;1.50;1.10;;;9.20;93.70;;;;;;4985063;28;20862;-77
2021/05/06 06:26:40;;;;;;;1.50;1.20;;;9.20;93.90;;;;;;4968053;28;20477;-76
2021/05/06 06:29:08;;;;;;;1.50;1.30;;;9.20;93.50;;;;;;4984321;28;20484;-80
2021/05/06 06:31:39;;;;;;;1.50;1.17;;;9.20;93.40;;;;;;4983858;28;20500;-78
2021/05/06 06:34:06;;;;;;;1.50;1.10;;;9.30;94.50;;;;;;4984976;28;21001;-78
2021/05/06 06:36:33;;;;;;;1.57;1.20;;;9.50;94.70;;;;;;4975027;28;20930;-80
2021/05/06 06:38:59;;;;;;;1.50;1.10;;;9.70;93.10;;;;;;4997272;28;20488;-79
2021/05/06 06:41:26;;;;;;;1.50;1.03;;;9.90;92.90;;;;;;4980489;28;20525;-79
2021/05/06 06:43:54;;;;;;;1.50;1.10;;;10.00;91.70;;;;;;4984649;28;20975;-79
2021/05/06 06:46:20;;;;;;;1.50;1.10;;;10.10;91.60;;;;;;4975345;28;20479;-79
2021/05/06 06:48:47;;;;;;;1.50;1.10;;;10.20;91.50;;;;;;5001324;28;20468;-79
2021/05/06 06:51:15;;;;;;;1.50;1.10;;;10.20;91.20;;;;;;4973368;28;20488;-79
2021/05/06 06:53:41;;;;;;;1.50;1.10;;;10.30;90.70;;;;;;4990627;28;20552;-79
2021/05/06 06:56:08;;;;;;;1.50;1.10;;;10.40;90.90;;;;;;4976519;28;20974;-81
2021/05/06 06:58:34;;;;;;;1.50;1.10;;;10.40;90.00;;;;;;5000283;28;20557;-78
2021/05/06 07:01:01;;;;;;;1.50;1.10;;;10.40;90.20;;;;;;4966921;28;20550;-78
2021/05/06 07:03:27;;;;;;;1.50;1.10;;;10.40;89.90;;;;;;4997327;28;20648;-78
2021/05/06 07:05:56;;;;;;;1.50;1.00;;;10.50;89.70;;;;;;4974039;28;20504;-77
2021/05/06 07:08:25;;;;;;;1.50;1.10;;;10.50;89.60;;;;;;4996935;28;20476;-79
2021/05/06 07:10:53;;;;;;;1.50;1.00;;;10.50;89.60;;;;;;4970495;28;20854;-79
2021/05/06 07:13:20;;;;;;;1.50;1.03;;;10.60;89.30;;;;;;4990524;28;20940;-81
2021/05/06 07:15:47;;;;;;;1.50;1.10;;;10.70;89.50;;;;;;4986740;28;21026;-80
2021/05/06 07:18:14;;;;;;;1.50;1.00;;;11.00;88.80;;;;;;4992139;28;20474;-78
2021/05/06 07:20:42;;;;;;;1.50;1.10;;;11.20;88.60;;;;;;4986970;28;20543;-80
2021/05/06 07:23:09;;;;;;;1.50;1.00;;;11.30;87.30;;;;;;4985831;28;20767;-81
2021/05/06 07:25:36;;;;;;;1.50;1.00;;;11.40;87.10;;;;;;4977567;28;20486;-81
2021/05/06 07:28:10;;;;;;;1.50;1.00;;;11.50;86.60;;;;;;4981909;28;20485;-80
2021/05/06 07:30:36;;;;;;;1.50;1.10;;;11.70;87.30;;;;;;4986363;28;20461;-80
2021/05/06 07:33:02;;;;;;;1.50;1.00;;;11.80;85.90;;;;;;4986888;28;21010;-78
2021/05/06 07:35:28;;;;;;;1.50;1.00;;;12.00;86.40;;;;;;4982071;28;20464;-77
2021/05/06 07:37:55;;;;;;;1.50;0.90;;;12.20;85.00;;;;;;4993271;28;20479;-77
2021/05/06 07:40:22;;;;;;;1.50;1.10;;;12.30;84.80;;;;;;4976584;28;20473;-77
2021/05/06 07:42:48;;;;;;;1.50;1.00;;;12.30;84.60;;;;;;4976092;28;20871;-77
2021/05/06 07:45:15;;;;;;;1.50;1.00;;;12.20;84.20;;;;;;4989110;28;20472;-77
2021/05/06 07:47:41;;;;;;;1.50;1.00;;;12.20;84.50;;;;;;4993456;28;20487;-76
2021/05/06 07:50:08;;;;;;;1.50;1.00;;;12.20;84.30;;;;;;4994919;28;20469;-77
2021/05/06 07:52:35;;;;;;;1.50;1.07;;;12.30;83.60;;;;;;4986625;28;20492;-78
2021/05/06 07:55:01;;;;;;;1.50;1.00;;;12.30;83.50;;;;;;4996925;28;20521;-77
2021/05/06 07:57:29;;;;;;;1.50;1.00;;;12.30;83.20;;;;;;4989627;28;20495;-77
2021/05/06 07:59:55;;;;;;;1.50;0.93;;;12.30;83.00;;;;;;4979970;28;20457;-75
2021/05/06 08:02:22;;;;;;;1.50;1.00;;;12.20;83.30;;;;;;4979139;28;20869;-78
2021/05/06 08:04:48;;;;;;;1.50;1.00;;;12.10;83.60;;;;;;4980683;28;20685;-76
2021/05/06 08:07:14;;;;;;;1.50;1.00;;;12.10;83.80;;;;;;4980798;28;20874;-77
2021/05/06 08:09:41;;;;;;;1.50;1.00;;;12.10;83.30;;;;;;4981518;28;21008;-76
2021/05/06 08:12:08;;;;;;;1.50;1.00;;;12.10;84.20;;;;;;4961465;28;20496;-76
2021/05/06 08:14:35;;;;;;;1.50;1.00;;;12.20;84.20;;;;;;4982603;28;20994;-76
2021/05/06 08:17:04;;;;;;;1.50;1.00;;;12.50;85.40;;;;;;4978584;28;20491;-76
2021/05/06 08:19:30;;;;;;;1.50;1.00;;;12.80;84.30;;;;;;4990699;28;20969;-76
2021/05/06 08:21:57;;;;;;;1.50;1.00;;;13.20;81.50;;;;;;4970737;28;20524;-78
2021/05/06 08:24:23;;;;;;;1.50;1.00;;;13.60;81.70;;;;;;4984239;28;20543;-77
2021/05/06 08:26:49;;;;;;;1.50;0.90;;;13.90;81.10;;;;;;4978347;28;20488;-77
2021/05/06 08:29:15;;;;;;;1.50;1.00;;;14.20;81.00;;;;;;4985449;28;20481;-76
2021/05/06 08:31:42;;;;;;;1.50;1.00;;;14.40;79.20;;;;;;4982332;28;20484;-76
2021/05/06 08:34:09;;;;;;;1.50;1.00;;;14.70;79.10;;;;;;4994088;28;20473;-79
2021/05/06 08:36:35;;;;;;;1.60;1.10;;;14.80;78.10;;;;;;4974996;28;20539;-79
2021/05/06 08:39:03;;;;;;;1.80;1.47;;;14.90;76.90;;;;;;4993102;28;20556;-79
2021/05/06 08:41:30;;;;;;;1.50;0.90;;;14.90;76.40;;;;;;4978957;28;20480;-79
2021/05/06 08:43:58;;;;;;;1.50;0.90;;;15.00;76.80;;;;;;4983853;28;20466;-78
2021/05/06 08:46:32;;;;;;;1.50;0.90;;;15.20;76.10;;;;;;4976277;28;20967;-79
2021/05/06 08:49:00;;;;;;;1.50;1.00;;;15.40;74.90;;;;;;4990420;28;20597;-78
2021/05/06 08:51:28;;;;;;;1.50;1.00;;;15.40;75.40;;;;;;4971633;28;20500;-81
2021/05/06 08:53:54;;;;;;;1.50;0.90;;;15.40;75.20;;;;;;4984687;28;20464;-79
2021/05/06 08:56:21;;;;;;;1.50;0.90;;;15.40;75.40;;;;;;4983472;28;20476;-81
2021/05/06 08:58:48;;;;;;;1.50;0.90;;;15.50;75.50;;;;;;4994290;28;20491;-80
2021/05/06 09:01:15;;;;;;;1.50;0.90;;;15.60;74.30;;;;;;4977821;28;20583;-80
2021/05/06 09:03:41;;;;;;;1.50;1.00;;;15.60;73.80;;;;;;4984650;28;20461;-77
2021/05/06 09:06:14;;;;;;;1.50;0.90;;;15.70;72.70;;;;;;4980308;28;20506;-80
2021/05/06 09:08:42;;;;;;;1.50;0.90;;;15.80;71.40;;;;;;5007723;28;20499;-80
2021/05/06 09:11:09;;;;;;;1.50;0.90;;;15.80;71.60;;;;;;4979275;28;20480;-77
2021/05/06 09:13:35;;;;;;;1.50;0.90;;;15.90;71.10;;;;;;4983468;28;20997;-77
2021/05/06 09:16:03;;;;;;;1.50;1.00;;;16.10;71.70;;;;;;4988953;28;20947;-78
2021/05/06 09:18:37;;;;;;;2.17;1.23;;;16.20;70.60;;;;;;4997590;28;20528;-77
2021/05/06 09:21:04;;;;;;;1.50;1.00;;;16.10;70.90;;;;;;4977107;28;20527;-77
2021/05/06 09:23:32;;;;;;;1.50;0.90;;;16.00;70.90;;;;;;4999383;28;20472;-81
2021/05/06 09:26:01;;;;;;;1.50;0.97;;;15.80;70.90;;;;;;4973995;28;20500;-81
2021/05/06 09:28:30;;;;;;;1.50;0.90;;;15.70;71.80;;;;;;4995286;28;21303;-80
2021/05/06 09:30:59;;;;;;;1.50;0.90;;;15.60;71.50;;;;;;4977427;28;20489;-80
2021/05/06 09:33:34;;;;;;;1.50;0.90;;;15.40;71.40;;;;;;4984312;28;20530;-78
2021/05/06 09:36:10;;;;;;;1.50;1.00;;;15.10;71.30;;;;;;4973694;28;20485;-81
2021/05/06 09:38:39;;;;;;;1.50;0.90;;;14.90;72.60;;;;;;4997737;28;20476;-80
2021/05/06 09:41:06;;;;;;;1.50;0.90;;;14.80;73.10;;;;;;4981289;28;20493;-81
2021/05/06 09:43:39;;;;;;;1.50;0.90;;;14.70;72.70;;;;;;5006023;28;20476;-79
2021/05/06 09:46:23;;;;;;;1.50;1.00;;;14.90;72.60;;;;;;5002576;28;20875;-80
2021/05/06 09:48:59;;;;;;;1.50;1.00;;;15.20;72.40;;;;;;5019073;28;20533;-81
2021/05/06 09:51:36;;;;;;;1.50;0.90;;;15.50;72.60;;;;;;4992123;28;20545;-80
2021/05/06 09:54:05;;;;;;;1.50;0.90;;;15.70;70.60;;;;;;5003121;28;20480;-79
2021/05/06 09:56:32;;;;;;;1.50;0.90;;;15.70;69.50;;;;;;4996905;28;21215;-78
2021/05/06 09:58:59;;;;;;;1.43;0.90;;;15.60;70.00;;;;;;5005636;28;20468;-78
2021/05/06 10:01:33;;;;;;;1.50;0.90;;;15.70;71.90;;;;;;4998088;28;20979;-79
2021/05/06 10:04:18;;;;;;;1.50;1.00;;;16.10;71.30;;;;;;5005764;28;20478;-78
2021/05/06 10:07:10;;;;;;;1.50;0.90;;;16.40;68.80;;;;;;5007317;28;20549;-78
2021/05/06 10:09:54;;;;;;;1.50;0.90;;;16.40;68.30;;;;;;5001166;28;20473;-79
2021/05/06 10:12:23;;;;;;;1.50;1.00;;;16.40;69.80;;;;;;4995141;28;20496;-79
2021/05/06 10:14:50;;;;;;;1.50;0.90;;;16.60;70.80;;;;;;5009118;28;20464;-78
2021/05/06 10:17:18;;;;;;;1.50;0.90;;;16.80;69.30;;;;;;4996916;28;20558;-76
2021/05/06 10:19:45;;;;;;;1.50;0.90;;;16.90;69.60;;;;;;4999157;28;20473;-79
2021/05/06 10:22:12;;;;;;;1.50;0.90;;;16.90;68.60;;;;;;4988265;28;20496;-78
2021/05/06 10:24:42;;;;;;;1.50;0.90;;;16.80;66.90;;;;;;5013032;28;21201;-79
2021/05/06 10:27:11;;;;;;;1.50;0.90;;;16.70;67.40;;;;;;4994351;28;20492;-77
2021/05/06 10:29:38;;;;;;;1.50;0.90;;;16.90;68.00;;;;;;5001758;28;20482;-76
2021/05/06 10:32:08;;;;;;;1.50;0.90;;;16.90;67.20;;;;;;4998026;28;20480;-78
2021/05/06 10:34:35;;;;;;;1.50;0.90;;;16.90;67.20;;;;;;5002659;28;20467;-77
2021/05/06 10:37:02;;;;;;;1.50;0.90;;;17.10;66.80;;;;;;5020090;23;20778;-78
2021/05/06 10:39:37;;;;;;;1.50;0.90;;;17.40;66.90;;;;;;5007445;28;20474;-78
2021/05/06 10:42:30;;;;;;;1.50;0.90;;;17.60;65.10;;;;;;4998769;28;20568;-78
2021/05/06 10:44:58;;;;;;;1.50;0.90;;;17.60;64.50;;;;;;5009918;28;21186;-79
2021/05/06 10:47:52;;;;;;;1.50;0.90;;;17.50;64.20;;;;;;5004527;28;20511;-80
2021/05/06 10:50:21;;;;;;;1.50;1.00;;;17.60;64.90;;;;;;5006949;28;20536;-79
2021/05/06 10:52:50;;;;;;;1.50;0.90;;;17.70;62.80;;;;;;5011314;28;20479;-76
2021/05/06 10:55:48;;;;;;;1.47;0.90;;;17.60;63.70;;;;;;5006015;28;20903;-77
2021/05/06 10:58:39;;;;;;;1.50;0.90;;;17.40;63.20;;;;;;4991103;28;20575;-78
2021/05/06 11:01:24;;;;;;;1.50;0.90;;;17.10;64.30;;;;;;5000363;28;20864;-77
2021/05/06 11:04:08;;;;;;;1.50;0.90;;;16.80;64.40;;;;;;5018554;28;20473;-77
2021/05/06 11:06:36;;;;;;;1.50;0.90;;;16.50;65.00;;;;;;5000031;28;20488;-77
2021/05/06 11:09:32;;;;;;;1.50;1.00;;;16.50;65.50;;;;;;5011478;28;20467;-77
2021/05/06 11:12:20;;;;;;;1.50;0.90;;;16.60;65.60;;;;;;5001918;28;20645;-80
2021/05/06 11:15:27;;;;;;;1.47;0.90;;;16.80;65.40;;;;;;5004803;28;20970;-78
2021/05/06 11:17:55;;;;;;;1.40;0.90;;;17.00;64.90;;;;;;5007282;28;20666;-78
2021/05/06 11:20:42;;;;;;;1.50;0.90;;;17.00;63.70;;;;;;5007524;28;20456;-78
2021/05/06 11:23:26;;;;;;;1.50;0.90;;;17.00;63.00;;;;;;5000895;28;20495;-80
2021/05/06 11:26:02;;;;;;;1.50;0.90;;;16.90;63.10;;;;;;4991191;28;20971;-76
2021/05/06 11:28:46;;;;;;;1.43;0.90;;;16.90;64.10;;;;;;5014106;28;20900;-76
2021/05/06 11:31:14;;;;;;;1.43;0.90;;;16.90;64.90;;;;;;4989705;28;20525;-79
2021/05/06 11:33:40;;;;;;;1.50;1.00;;;16.80;65.00;;;;;;5004025;28;20835;-78
2021/05/06 11:36:19;;;;;;;1.43;0.90;;;16.60;65.00;;;;;;4993477;28;20478;-80
2021/05/06 11:38:54;;;;;;;1.47;0.90;;;16.60;65.80;;;;;;4999406;28;20463;-78
2021/05/06 11:41:27;;;;;;;1.50;0.90;;;16.60;65.70;;;;;;4990603;28;20490;-76
2021/05/06 11:43:57;;;;;;;1.50;0.90;;;16.60;63.80;;;;;;5015751;28;20496;-79
2021/05/06 11:46:25;;;;;;;1.50;0.90;;;16.60;65.20;;;;;;5000989;28;20495;-80
2021/05/06 11:48:52;;;;;;;1.50;0.90;;;16.70;63.00;;;;;;5008580;28;20468;-79
2021/05/06 11:51:30;;;;;;;1.50;0.90;;;16.60;62.50;;;;;;4988717;28;20479;-76
2021/05/06 11:54:09;;;;;;;1.50;0.90;;;16.50;62.50;;;;;;5004036;28;20464;-78
2021/05/06 11:56:38;;;;;;;1.47;0.90;;;16.40;62.10;;;;;;4992809;28;20663;-76
2021/05/06 11:59:06;;;;;;;1.50;0.90;;;16.10;62.70;;;;;;5004060;28;20506;-77
2021/05/06 12:01:32;;;;;;;1.50;1.00;;;15.90;63.90;;;;;;4993767;28;20485;-77
2021/05/06 12:03:59;;;;;;;1.50;1.00;;;15.70;64.30;;;;;;5005304;28;20936;-77
2021/05/06 12:06:30;;;;;;;1.50;0.90;;;15.50;65.20;;;;;;4998512;28;20503;-77
2021/05/06 12:08:56;;;;;;;1.50;1.00;;;15.40;66.20;;;;;;5014954;28;20479;-77
2021/05/06 12:11:33;;;;;;;1.47;0.90;;;15.30;65.40;;;;;;4990392;28;20485;-79
2021/05/06 12:13:59;;;;;;;1.50;1.00;;;15.20;66.00;;;;;;5010688;28;20480;-77
2021/05/06 12:16:27;;;;;;;1.50;0.93;;;15.10;64.90;;;;;;4995077;28;20584;-76
2021/05/06 12:18:58;;;;;;;1.50;0.90;;;15.10;66.60;;;;;;5005010;28;20558;-75
2021/05/06 12:21:31;;;;;;;1.50;1.00;;;15.20;66.60;;;;;;4991150;28;20492;-80
2021/05/06 12:23:58;;;;;;;1.50;0.90;;;15.30;64.80;;;;;;5002170;28;20467;-76
2021/05/06 12:26:26;;;;;;;1.50;0.90;;;15.50;65.30;;;;;;4997940;28;21056;-76
2021/05/06 12:28:53;;;;;;;1.50;0.90;;;15.80;64.90;;;;;;5012463;28;20744;-77
2021/05/06 12:31:19;;;;;;;1.50;0.90;;;16.00;65.30;;;;;;4989393;28;20497;-79
2021/05/06 12:33:47;;;;;;;1.50;0.90;;;16.20;63.30;;;;;;4999653;28;20575;-78
2021/05/06 12:36:14;;;;;;;1.50;0.90;;;16.30;62.90;;;;;;4992339;28;21519;-76
2021/05/06 12:38:42;;;;;;;1.47;0.90;;;16.30;62.00;;;;;;5015178;28;20727;-76
2021/05/06 12:41:10;;;;;;;1.50;0.90;;;16.40;62.70;;;;;;4991547;28;20571;-77
2021/05/06 12:43:46;;;;;;;1.50;0.90;;;16.50;63.40;;;;;;5004970;28;20932;-77
2021/05/06 12:46:13;;;;;;;1.50;1.00;;;16.50;62.00;;;;;;4994055;28;20568;-80
2021/05/06 12:48:44;;;;;;;1.47;0.90;;;16.50;61.30;;;;;;5002918;28;20476;-75
2021/05/06 12:51:13;;;;;;;1.50;1.00;;;16.50;63.10;;;;;;4993317;28;20492;-78
2021/05/06 12:53:58;;;;;;;1.50;1.00;;;16.60;62.10;;;;;;4991035;28;20468;-79
2021/05/06 12:56:26;;;;;;;1.50;0.90;;;16.80;62.70;;;;;;4992981;28;20492;-78
2021/05/06 12:58:53;;;;;;;1.50;1.00;;;17.00;62.00;;;;;;5006345;28;20547;-78
2021/05/06 13:01:29;;;;;;;1.50;0.90;;;17.10;60.80;;;;;;4994012;28;20475;-78
2021/05/06 13:03:59;;;;;;;1.50;1.00;;;17.20;60.30;;;;;;5013852;28;20647;-77
2021/05/06 13:06:31;;;;;;;1.50;0.90;;;17.20;62.50;;;;;;5000220;28;20529;-78
2021/05/06 13:08:59;;;;;;;1.50;0.90;;;17.40;61.10;;;;;;5012822;28;20468;-79
2021/05/06 13:11:25;;;;;;;1.50;0.90;;;17.50;60.50;;;;;;4998903;28;20487;-78
2021/05/06 13:13:53;;;;;;;1.50;0.90;;;17.60;60.80;;;;;;5011450;28;20468;-78
2021/05/06 13:16:37;;;;;;;1.50;0.90;;;17.70;61.70;;;;;;4989053;28;20583;-76
2021/05/06 13:19:04;;;;;;;1.50;0.90;;;17.70;60.20;;;;;;5015121;28;20472;-77
2021/05/06 13:21:32;;;;;;;1.50;1.00;;;17.70;59.70;;;;;;4999436;28;20495;-77
2021/05/06 13:24:00;;;;;;;1.47;0.90;;;17.70;59.30;;;;;;5016347;28;21100;-80
2021/05/06 13:26:32;;;;;;;1.43;0.90;;;17.70;60.40;;;;;;4989899;28;20590;-77
2021/05/06 13:29:03;;;;;;;1.50;0.90;;;17.70;59.70;;;;;;5013549;28;21069;-77
2021/05/06 13:31:34;;;;;;;1.50;0.90;;;17.70;59.80;;;;;;4991438;28;20495;-76
2021/05/06 13:34:12;;;;;;;1.47;0.90;;;17.50;59.10;;;;;;4999850;28;20480;-75
2021/05/06 13:36:40;;;;;;;1.43;0.90;;;17.10;59.50;;;;;;4998244;28;20537;-77
2021/05/06 13:39:07;;;;;;;1.50;0.90;;;16.80;61.20;;;;;;5011639;28;20464;-77
2021/05/06 13:41:35;;;;;;;1.50;1.00;;;16.70;60.90;;;;;;4989693;28;20534;-79
2021/05/06 13:44:03;;;;;;;1.50;0.93;;;16.60;60.60;;;;;;4999385;28;20464;-79
2021/05/06 13:46:30;;;;;;;1.47;0.90;;;16.50;61.80;;;;;;4995638;28;20570;-77
2021/05/06 13:48:58;;;;;;;1.50;1.00;;;16.30;62.50;;;;;;5011284;28;20502;-76
2021/05/06 13:51:25;;;;;;;1.47;0.90;;;16.20;62.60;;;;;;4999770;28;21235;-77
2021/05/06 13:53:53;;;;;;;1.50;0.90;;;16.10;62.70;;;;;;5008917;28;20468;-78
2021/05/06 13:56:20;;;;;;;1.50;0.90;;;16.00;62.30;;;;;;4992314;28;20491;-78
2021/05/06 13:58:49;;;;;;;1.50;1.00;;;15.90;62.40;;;;;;5004807;28;20852;-79
2021/05/06 14:01:15;;;;;;;1.50;0.90;;;15.80;62.90;;;;;;4999431;28;20495;-78
2021/05/06 14:03:42;;;;;;;1.47;1.00;;;15.70;62.90;;;;;;5018967;28;20963;-77
2021/05/06 14:06:09;;;;;;;1.50;1.00;;;15.60;63.40;;;;;;4995240;28;20490;-76
2021/05/06 14:08:36;;;;;;;1.47;0.90;;;15.50;63.90;;;;;;5016308;28;20513;-76
2021/05/06 14:11:04;;;;;;;1.50;0.90;;;15.50;63.60;;;;;;4990690;28;20460;-76
2021/05/06 14:13:31;;;;;;;1.50;1.00;;;15.40;65.20;;;;;;5013039;28;21194;-77
2021/05/06 14:15:58;;;;;;;1.50;0.90;;;15.30;66.50;;;;;;4999202;28;20491;-76
2021/05/06 14:18:24;;;;;;;1.50;1.00;;;15.20;67.70;;;;;;5027867;28;20467;-77
2021/05/06 14:20:52;;;;;;;1.50;0.90;;;15.20;67.40;;;;;;4988726;28;20475;-78
2021/05/06 14:23:20;;;;;;;1.43;1.00;;;15.10;66.30;;;;;;5018552;28;20483;-79
2021/05/06 14:25:48;;;;;;;1.47;1.00;;;15.10;66.30;;;;;;4990401;28;20499;-78
2021/05/06 14:28:15;;;;;;;1.50;1.00;;;15.10;66.10;;;;;;5019689;28;20472;-78
2021/05/06 14:30:42;;;;;;;1.50;0.90;;;15.00;66.20;;;;;;4997931;28;20892;-78
2021/05/06 14:33:09;;;;;;;1.47;1.00;;;14.90;66.90;;;;;;5005426;28;20528;-77
2021/05/06 14:35:35;;;;;;;1.47;0.90;;;14.90;67.30;;;;;;4999883;28;20471;-77
2021/05/06 14:38:02;;;;;;;1.43;0.90;;;14.70;67.30;;;;;;5001443;28;20510;-77
2021/05/06 14:40:29;;;;;;;1.43;1.00;;;14.60;68.80;;;;;;4996759;28;20536;-78
2021/05/06 14:42:55;;;;;;;1.47;0.90;;;14.50;69.40;;;;;;5006162;28;21084;-78
2021/05/06 14:45:22;;;;;;;1.50;1.00;;;14.40;70.70;;;;;;5006510;28;20500;-78
2021/05/06 14:47:48;;;;;;;1.47;0.90;;;14.20;71.00;;;;;;5012673;28;20471;-79
2021/05/06 14:50:16;;;;;;;1.50;0.97;;;14.10;71.20;;;;;;5001561;28;20554;-76
2021/05/06 14:52:46;;;;;;;1.50;1.00;;;14.00;71.60;;;;;;5004044;28;20487;-78
2021/05/06 14:55:12;;;;;;;1.50;0.90;;;13.80;71.30;;;;;;5006064;28;20878;-78
2021/05/06 14:57:40;;;;;;;1.50;0.90;;;13.70;72.80;;;;;;4991582;28;20484;-78
2021/05/06 15:00:08;;;;;;;1.47;0.90;;;13.60;73.10;;;;;;5002195;28;20567;-76
2021/05/06 15:02:35;;;;;;;1.50;1.00;;;13.60;74.50;;;;;;4986483;28;21023;-77
2021/05/06 15:05:02;;;;;;;1.47;1.00;;;13.60;74.00;;;;;;5007604;28;20551;-77
2021/05/06 15:07:28;;;;;;;1.50;1.00;;;13.60;74.20;;;;;;5002577;28;20478;-78
2021/05/06 15:09:55;;;;;;;1.50;1.00;;;13.60;75.20;;;;;;5001775;28;20985;-78
2021/05/06 15:12:21;;;;;;;1.50;1.00;;;13.70;75.80;;;;;;5006407;28;20509;-77
2021/05/06 15:14:48;;;;;;;1.50;0.90;;;13.60;76.80;;;;;;5002239;28;20544;-77
2021/05/06 15:17:14;;;;;;;1.50;0.90;;;13.60;77.10;;;;;;5002240;28;20491;-76
2021/05/06 15:19:41;;;;;;;1.50;1.00;;;13.60;76.20;;;;;;5004107;28;20764;-77